Green Bank, West Virginia
Current Conditions -  °F | °C
As of 8:51 PM on Wednesday 26 Nov 2014 (Local Time) from KEKN Reporting Station
Haze Haze  
Wind Chill: 33°   Ceiling: 1800
Heat Index: 33°   Visibility: 4mi
Dew Point: 33°   Wind: 0mph
Humidity: 100%   Direction: NA
Pressure: 29.98"   Gusts: NA
Location:  38.42°N, 79.83°W
Report Text: KEKN 270151Z AUTO 00000KT 4SM BR FEW009 OVC018 01/01 A2998 RMK AO2 SLP172 T00060006 TSNO
Loading
Personal Weather Stations






























Interactive Weather Map New forecast layout! Learn more

10-Day Weather Forecast

Advertisements
Track Severe Weather on mobile